Tropical Cyclones
[Index]
Main Index Home Page Stock Weather Photos Extreme Storms Discussion Storm News and Storm Chasing Reports Tropical Cyclones / Hurricanes / Typhoons Weather Data and Links Wild Fires / Bushfires Weather Observation Techniques Weather Picture Catalogue Tornado Pictures and Reports Stock Video Footage and DVDs for sale
Season 1996-1997 Tropical Cyclone MELANIE-BELLAMINE Track Map
Season 1996-1997 Summaries: [BoM-AU] [JTWC-AU] [JTWC-SIO] [JTWC-SPAC] [JTWC-SH]
<<- Previous TC | JTWC 1996-1997 Season | Next TC ->>

click for intensity scale information  Lat/long Grid: Show Hide

 Date Labels: Show Hide

Joint Typhoon Warning Centre Cyclone Data

Name: MELANIE-BELLAMINE

28 Oct 1996 00:00 UTC to 12 Nov 1996 12:00 UTC

    date/time    lat    long     hPa   cat  kts
1996-10-28 00    6.7    94.8                  20          
1996-10-28 06    7.2    95.1                  20          
1996-10-28 12    7.6    95.4                  20          
1996-10-28 18    8.0    95.7                  25          
1996-10-29 00    8.4    96.0                  25          
1996-10-29 06    8.9    96.2                  30          
1996-10-29 12    9.5    96.2                  30          
1996-10-29 18   10.0    96.2                  30          
1996-10-30 00   10.2    96.2                  35          
1996-10-30 06   10.3    96.1                  35          
1996-10-30 12   10.4    96.0                  35          
1996-10-30 18   10.4    95.8                  35          
1996-10-31 00   10.3    95.5            1     40          
1996-10-31 06   10.2    95.3            1     45          
1996-10-31 12   10.0    94.9            1     45          
1996-10-31 18    9.8    94.4            1     45          
1996-11-01 00    9.5    93.2            1     50          
1996-11-01 06    9.3    91.8            2     55          
1996-11-01 12    9.0    90.6            2     60          
1996-11-01 18    8.8    89.3            2     65          
1996-11-02 00    8.7    88.7            2     65          
1996-11-02 06    8.7    88.1            2     65          
1996-11-02 12    8.9    87.7            2     65          
1996-11-02 18    9.2    87.4            2     65          
1996-11-03 00    9.7    87.2            2     65          
1996-11-03 06   10.1    86.7            2     70          
1996-11-03 12   10.3    86.2            3     80          
1996-11-03 18   10.4    85.7            3     90          
1996-11-04 00   10.4    85.4            4    100          
1996-11-04 06   10.4    85.2            4    100          
1996-11-04 12   10.5    85.0            4    100          
1996-11-04 18   10.5    84.8            4    110          
1996-11-05 00   10.6    84.4            4    110          
1996-11-05 06   10.7    83.9            4    110          
1996-11-05 12   10.9    83.3            4    115          
1996-11-05 18   11.1    82.7            4    115          
1996-11-06 00   11.4    82.0            4    105          
1996-11-06 06   11.5    81.3            4    105          
1996-11-06 12   11.7    80.6            4    105          
1996-11-06 18   12.0    79.6            4    115          
1996-11-07 00   12.4    78.7            5    125          
1996-11-07 06   12.7    77.9            5    125          
1996-11-07 12   13.3    77.2            4    120          
1996-11-07 18   14.0    76.7            4    120          
1996-11-08 00   14.8    76.6            4    115          
1996-11-08 06   15.4    76.6            4    110          
1996-11-08 12   16.0    76.9            4    110          
1996-11-08 18   16.7    77.4            4    105          
1996-11-09 00   17.7    78.3            4    100          
1996-11-09 06   18.6    79.1            3     90          
1996-11-09 12   19.2    79.7            3     80          
1996-11-09 18   20.4    79.9            2     65          
1996-11-10 00   21.4    79.6            1     50          
1996-11-10 06   21.8    78.9            1     45          
1996-11-10 12   21.9    78.4            1     40          
1996-11-10 18   22.1    77.9                  35          
1996-11-11 00   22.3    77.6                  30          
1996-11-11 06   22.6    76.5                  25          
1996-11-11 12   22.9    75.6                  25          
1996-11-11 18   23.0    75.1                  20          
1996-11-12 00   23.1    74.8                  20          
1996-11-12 06   23.2    74.5                  15          
1996-11-12 12   23.3    74.2                  15          
Winds are 1-min average.

Tropical cyclone tracks developed by Michael Bath using data from the Joint Typhoon Warning Centre Best Tracks and Google Maps.


[Australian Severe Weather index] [Copyright Notice] [Email Contacts] [Search This Site] [Privacy Policy]
Document: tropical_cyclone_melanie-bellamine.htm Updated: 18 September 2016